createdAt,value
2023-10-03T00:02:34.507Z,6.57
2023-10-03T00:07:37.239Z,7.18
2023-10-03T00:12:40.027Z,7.53
2023-10-03T00:17:43.155Z,7.30
2023-10-03T00:22:47.314Z,8.85
2023-10-03T00:27:52.222Z,6.23
2023-10-03T00:32:55.248Z,6.75
2023-10-03T00:37:58.126Z,6.65
2023-10-03T00:43:02.419Z,7.73
2023-10-03T00:48:08.535Z,8.63
2023-10-03T00:53:14.478Z,8.03
2023-10-03T00:58:29.915Z,8.20
2023-10-03T01:03:34.703Z,6.88
2023-10-03T01:08:52.938Z,7.93
2023-10-03T01:13:58.635Z,6.65
2023-10-03T01:19:22.427Z,6.33
2023-10-03T01:24:27.738Z,7.65
2023-10-03T01:29:31.548Z,7.75
2023-10-03T01:34:34.113Z,7.63
2023-10-03T01:39:37.646Z,7.75
2023-10-03T01:44:40.291Z,5.97
2023-10-03T01:49:44.130Z,7.82
2023-10-03T01:54:47.820Z,7.20
2023-10-03T01:59:51.476Z,6.80
2023-10-03T02:04:54.389Z,8.15
2023-10-03T02:09:56.961Z,9.43
2023-10-03T02:15:02.246Z,11.95
2023-10-03T02:20:16.796Z,6.75
2023-10-03T02:25:19.885Z,7.90
2023-10-03T02:30:25.433Z,9.10
2023-10-03T02:35:28.286Z,7.90
2023-10-03T02:40:32.287Z,8.40
2023-10-03T02:45:36.733Z,7.28
2023-10-03T02:50:40.655Z,6.63
2023-10-03T02:55:43.495Z,9.77
2023-10-03T03:00:50.696Z,7.50
2023-10-03T03:05:53.581Z,8.57
2023-10-03T03:10:59.145Z,9.63
2023-10-03T03:16:04.971Z,7.00
2023-10-03T03:21:15.383Z,8.88
2023-10-03T03:26:23.255Z,7.33
2023-10-03T03:31:32.906Z,7.57
2023-10-03T03:36:39.927Z,7.47
2023-10-03T03:41:43.990Z,7.27
2023-10-03T03:46:46.617Z,6.20
2023-10-03T03:51:50.132Z,7.47
2023-10-03T03:56:53.243Z,7.78
2023-10-03T04:01:56.758Z,9.30
2023-10-03T04:07:00.276Z,9.27
2023-10-03T04:12:02.981Z,6.45
2023-10-03T04:17:05.599Z,7.23
2023-10-03T04:22:08.316Z,6.43
2023-10-03T04:27:12.139Z,6.18
2023-10-03T04:32:14.673Z,8.50
2023-10-03T04:37:18.303Z,6.00
2023-10-03T04:42:21.366Z,6.27
2023-10-03T04:47:24.137Z,8.73
2023-10-03T04:52:26.797Z,6.80
2023-10-03T04:57:29.472Z,6.13
2023-10-03T05:02:32.681Z,6.93
2023-10-03T05:07:35.497Z,7.43
2023-10-03T05:12:39.294Z,5.93
2023-10-03T05:17:45.032Z,9.95
2023-10-03T05:22:48.466Z,8.33
2023-10-03T05:27:52.565Z,9.27
2023-10-03T05:32:55.572Z,8.37
2023-10-03T05:37:58.458Z,7.78
2023-10-03T05:43:02.801Z,8.98
2023-10-03T05:48:07.183Z,11.27
2023-10-03T05:53:11.292Z,10.35
2023-10-03T05:58:14.269Z,11.27
2023-10-03T06:03:17.555Z,14.52
2023-10-03T06:08:20.599Z,10.13
2023-10-03T06:13:23.774Z,8.60
2023-10-03T06:18:30.520Z,11.55
2023-10-03T06:23:34.546Z,9.60
2023-10-03T06:28:37.374Z,9.55
2023-10-03T06:33:43.201Z,8.07
2023-10-03T06:38:48.004Z,10.13
2023-10-03T06:43:50.742Z,9.60
2023-10-03T06:48:55.815Z,8.60
2023-10-03T06:53:58.543Z,8.65
2023-10-03T06:59:02.501Z,10.90
2023-10-03T07:04:08.558Z,11.10
2023-10-03T07:09:12.404Z,9.50
2023-10-03T07:14:15.742Z,10.07
2023-10-03T07:19:18.513Z,7.88
2023-10-03T07:24:22.370Z,10.00
2023-10-03T07:29:26.597Z,9.33
2023-10-03T07:34:29.467Z,8.25
2023-10-03T07:39:32.220Z,11.13
2023-10-03T07:44:36.703Z,9.00
2023-10-03T07:49:43.114Z,9.65
2023-10-03T07:54:56.193Z,10.67
2023-10-03T08:00:00.153Z,9.38
2023-10-03T08:05:03.533Z,9.30
2023-10-03T08:10:07.787Z,7.07
2023-10-03T08:15:18.714Z,9.55
2023-10-03T08:20:22.730Z,5.47
2023-10-03T08:25:29.330Z,6.47
2023-10-03T08:30:32.261Z,5.33
2023-10-03T08:35:39.406Z,6.90
2023-10-03T08:40:51.640Z,6.70
2023-10-03T08:45:58.385Z,8.13
2023-10-03T08:51:04.998Z,7.57
2023-10-03T08:56:10.121Z,9.87
2023-10-03T09:01:19.389Z,6.78
2023-10-03T09:06:22.403Z,7.70
2023-10-03T09:11:30.196Z,6.10
2023-10-03T09:16:40.709Z,7.18
2023-10-03T09:21:47.163Z,6.20
2023-10-03T09:26:59.002Z,6.05
2023-10-03T09:32:15.055Z,6.18
2023-10-03T09:37:18.824Z,5.93
2023-10-03T09:42:25.392Z,6.43
2023-10-03T09:47:34.456Z,7.13
2023-10-03T09:52:39.710Z,5.88
2023-10-03T09:57:42.944Z,6.25
2023-10-03T10:02:48.887Z,6.43
2023-10-03T10:07:56.400Z,7.05
2023-10-03T10:13:22.611Z,7.13
2023-10-03T10:18:45.499Z,6.00
2023-10-03T10:24:12.048Z,7.05
2023-10-03T10:29:20.778Z,6.33
2023-10-03T10:34:23.883Z,7.32
2023-10-03T10:39:55.423Z,7.00
2023-10-03T10:45:16.620Z,6.75
2023-10-03T10:50:22.922Z,5.78
2023-10-03T10:55:27.233Z,5.87
2023-10-03T11:00:29.951Z,6.63
2023-10-03T11:05:49.683Z,6.60
2023-10-03T11:10:56.638Z,6.38
2023-10-03T11:16:01.833Z,7.05
2023-10-03T11:21:05.472Z,6.57
2023-10-03T11:26:08.280Z,5.85
2023-10-03T11:31:11.357Z,6.20
2023-10-03T11:36:15.751Z,9.23
2023-10-03T11:41:31.979Z,6.82
2023-10-03T11:46:41.606Z,7.33
2023-10-03T11:51:45.818Z,8.05
2023-10-03T11:56:49.539Z,6.23
2023-10-03T12:01:58.381Z,8.90
2023-10-03T12:07:01.328Z,7.57
2023-10-03T12:12:04.368Z,9.90
2023-10-03T12:17:07.696Z,8.05
2023-10-03T12:22:11.907Z,11.53
2023-10-03T12:27:16.628Z,7.65
2023-10-03T12:32:19.311Z,9.40
2023-10-03T12:37:22.169Z,9.37
2023-10-03T12:42:25.028Z,12.05
2023-10-03T12:47:29.600Z,14.00
2023-10-03T12:52:32.665Z,8.30
2023-10-03T12:57:35.370Z,11.25
2023-10-03T13:02:39.084Z,23.17
2023-10-03T13:07:42.198Z,8.18
2023-10-03T13:12:47.765Z,7.87
2023-10-03T13:17:54.955Z,10.70
2023-10-03T13:22:58.891Z,8.77
2023-10-03T13:28:01.594Z,9.93
2023-10-03T13:33:04.872Z,8.57
2023-10-03T13:38:07.711Z,9.50
2023-10-03T13:43:10.586Z,8.70
2023-10-03T13:48:13.580Z,10.32
2023-10-03T13:53:21.005Z,8.93
2023-10-03T13:58:23.856Z,10.25
2023-10-03T14:03:26.648Z,9.77
2023-10-03T14:08:29.326Z,8.90
2023-10-03T14:13:33.115Z,12.68
2023-10-03T14:18:36.324Z,10.77
2023-10-03T14:23:39.547Z,12.43
2023-10-03T14:28:42.300Z,10.43
2023-10-03T14:33:45.114Z,14.90
2023-10-03T14:38:48.380Z,11.60
2023-10-03T14:43:51.075Z,14.13
2023-10-03T14:48:54.100Z,13.68
2023-10-03T14:53:57.423Z,15.87
2023-10-03T14:59:00.994Z,12.43
2023-10-03T15:04:04.248Z,12.27
2023-10-03T15:09:09.159Z,11.20
2023-10-03T15:14:12.037Z,12.80
2023-10-03T15:19:16.806Z,13.60
2023-10-03T15:24:21.186Z,11.57
2023-10-03T15:29:24.071Z,12.23
2023-10-03T15:34:32.582Z,14.20
2023-10-03T15:39:35.698Z,10.65
2023-10-03T15:44:42.297Z,12.50
2023-10-03T15:49:48.754Z,12.05
2023-10-03T15:54:51.403Z,13.48
2023-10-03T15:59:54.275Z,13.13
2023-10-03T16:04:58.359Z,10.25
2023-10-03T16:10:05.216Z,12.67
2023-10-03T16:15:09.301Z,10.45
2023-10-03T16:20:13.525Z,12.40
2023-10-03T16:25:16.704Z,9.97
2023-10-03T16:30:20.195Z,10.02
2023-10-03T16:35:23.168Z,12.73
2023-10-03T16:40:26.006Z,10.43
2023-10-03T16:45:31.360Z,11.52
2023-10-03T16:50:34.548Z,10.13
2023-10-03T16:55:37.250Z,10.27
2023-10-03T17:00:41.477Z,11.00
2023-10-03T17:05:44.745Z,11.40
2023-10-03T17:10:47.655Z,10.82
2023-10-03T17:15:50.518Z,12.47
2023-10-03T17:20:53.716Z,13.63
2023-10-03T17:25:56.633Z,13.10
2023-10-03T17:31:00.841Z,16.20
2023-10-03T17:36:04.123Z,10.55
2023-10-03T17:41:08.156Z,10.63
2023-10-03T17:46:11.083Z,10.70
2023-10-03T17:51:14.226Z,14.13
2023-10-03T17:56:17.057Z,12.40
2023-10-03T18:01:28.285Z,9.75
2023-10-03T18:06:31.125Z,10.70
2023-10-03T18:11:36.656Z,11.75
2023-10-03T18:16:39.437Z,11.20
2023-10-03T18:21:42.106Z,10.48
2023-10-03T18:26:45.418Z,9.93
2023-10-03T18:31:48.348Z,9.53
2023-10-03T18:36:51.215Z,9.27
2023-10-03T18:41:54.056Z,10.80
2023-10-03T18:46:56.778Z,8.48
2023-10-03T18:51:59.846Z,9.18
2023-10-03T18:57:02.817Z,8.43
2023-10-03T19:02:06.607Z,9.55
2023-10-03T19:07:10.411Z,11.40
2023-10-03T19:12:13.443Z,9.02
2023-10-03T19:17:16.327Z,8.52
2023-10-03T19:22:19.128Z,9.07
2023-10-03T19:27:22.629Z,12.10
2023-10-03T19:32:25.510Z,11.10
2023-10-03T19:37:28.317Z,9.50
2023-10-03T19:42:31.496Z,10.52
2023-10-03T19:47:36.375Z,8.00
2023-10-03T19:52:39.153Z,10.95
2023-10-03T19:57:42.126Z,10.13
2023-10-03T20:02:45.875Z,8.13
2023-10-03T20:07:49.111Z,9.57
2023-10-03T20:12:53.142Z,9.00
2023-10-03T20:17:56.064Z,7.78
2023-10-03T20:22:59.022Z,10.07
2023-10-03T20:28:02.103Z,8.48
2023-10-03T20:33:05.247Z,7.82
2023-10-03T20:38:08.011Z,8.90
2023-10-03T20:43:10.856Z,7.68
2023-10-03T20:48:13.904Z,6.90
2023-10-03T20:53:16.727Z,9.63
2023-10-03T20:58:19.501Z,7.13
2023-10-03T21:03:22.500Z,8.53
2023-10-03T21:08:25.441Z,6.82
2023-10-03T21:13:28.142Z,7.43
2023-10-03T21:18:30.816Z,8.55
2023-10-03T21:23:33.529Z,8.55
2023-10-03T21:28:36.367Z,5.53
2023-10-03T21:33:39.170Z,7.70
2023-10-03T21:38:41.901Z,7.93
2023-10-03T21:43:45.282Z,7.43
2023-10-03T21:48:48.010Z,8.50
2023-10-03T21:53:51.336Z,7.00
2023-10-03T21:58:54.030Z,8.02
2023-10-03T22:03:56.883Z,6.97
2023-10-03T22:09:00.033Z,5.90
2023-10-03T22:14:02.896Z,6.53
2023-10-03T22:19:05.821Z,6.57
2023-10-03T22:24:08.982Z,7.22
2023-10-03T22:29:11.610Z,7.20
2023-10-03T22:34:14.626Z,9.77
2023-10-03T22:39:17.789Z,7.97
2023-10-03T22:44:20.587Z,8.83
2023-10-03T22:49:23.978Z,9.15
2023-10-03T22:54:27.358Z,8.47
2023-10-03T22:59:33.270Z,9.57
2023-10-03T23:04:36.042Z,9.48
2023-10-03T23:09:38.766Z,9.07
2023-10-03T23:14:42.191Z,8.98
2023-10-03T23:19:44.947Z,9.10
2023-10-03T23:24:48.760Z,10.15
2023-10-03T23:29:51.333Z,10.63
2023-10-03T23:34:54.153Z,8.40
2023-10-03T23:39:57.507Z,10.93
2023-10-03T23:45:00.322Z,10.10
2023-10-03T23:50:07.693Z,8.48
2023-10-03T23:55:14.446Z,5.65
